Misión y Visión

La misión es proporcionar información fiable a la navegación aérea, contribuyendo a la seguridad, regularidad y eficiencia de la Navegación Aérea Internacional

La visión es contribuir sustancialmente al desarrollo de conocimientos y a la utilización de la meteorología aeronáutica a nivel nacional e internacional, mediante la innovación y la coparticipación con sectores sociales y productivos de la sociedad.

 
  Inicio
  Metar
  Taf
  Wintemp
  SIGMET
  Avisos
  Pronósticos
  Carpeta Meteorologica
  Imágenes Satelitales
  Climatología Aeronáutica
   
  ¿Quienes Somos?
  Contacto
  Eventos
Taf

 

IMÁGENES DEL AEROPUERTO
(EN CONSTRUCCION)

 

PRONOSTICO DE AERÓDROMO
TAF / PROYECCION CLIMATICA
MES DE JULIO

 

AEROPUERTO ENRIQUE MALEK:

TAF MPSM 081600Z 0818/1000 33006KT FEW015CB SCT080 PROB30 TEMPO 0818/0821 7000 TSRA FEW013CB BECMG 0822/0902 36006KT 9999 NSW SCT016=


TAF:

TAF MPDA 081600Z 0818/0906 18008KT 9999 SCT018 SCT070 PROB30TEMPO 0820/0823 7000 TSRA FEW013CB BECMG 0823/0902 8000 RA SCT012=

 

AEROPUERTO PANAMA PACIFICO:

hola



TAF:



AEROPUERTO MARCOS A. GELABERT:

TAF MPMG 081600Z 0818/0906 33008KT FEW013CB SCT100 PROB30 TEMPO 0818/0821 7000 TSRA FEW012CB BECMG 0822/0902 36006KT 9999 NSW SCT015=



TAF:



AEROPUERTO INTL. DE TOCUMEN:

TAF MPPA 081600Z 0818/1000 32008KT FEW015CB SCT080 PROB30 TEMPO 0818/0821| 6000 TSRA FEW013CB BECMG 0822/0902 34006KT 9999 NSW SCT018=



TAF:

TAF MPTO 081600Z 0818/1000 30008KT FEW015CB SCT100 PROB30 TEMPO 0818/0821 6000 TSRA FEW013CB BECMG 0822/0902 33006KT 9999 NSW SCT017=


 
 



























  Noticias AAC
  Directorio
  Contáctenos
  Historia
  Quejas y Sugerencias
  Etica y Transparencia

  Gestión SSP/SMS
  Seguridad Aérea
  Navegación Aérea
  Transporte Aéreo

  Tramites
  Áeronaves de Alquiler

  Meteorología
  I.S.F.P.A
  Notam
  Peligro Aviario
  AVSEC
  UPIA
  Permisos
 




DECLARACIÓN DE PRIVACIDAD